Time;durP1;ratioP1;P1;durP2;ratioP2;P2;SDS_P1;SDS_P2;PMS_P1;PMS_P2;Temp;Humidity;BMP_temperature;BMP_pressure;BME280_temperature;BME280_humidity;BME280_pressure;Samples;Min_cycle;Max_cycle;Signal;HPM_P1;HPM_P2
2022/06/05 00:02:27;;;;;;;3.28;2.70;;;23.00;69.70;;;;;;5118630;28;20470;-47
2022/06/05 00:05:11;;;;;;;2.85;2.40;;;23.00;63.20;;;;;;5118954;28;20053;-47
2022/06/05 00:07:47;;;;;;;2.63;2.42;;;23.00;63.20;;;;;;5118886;28;20039;-48
2022/06/05 00:10:26;;;;;;;2.22;2.03;;;23.00;63.40;;;;;;5118825;28;20161;-48
2022/06/05 00:12:52;;;;;;;2.72;2.45;;;;;;;;;;5119068;28;20028;-47
2022/06/05 00:15:19;;;;;;;2.72;2.42;;;;;;;;;;5118812;28;20024;-48
2022/06/05 00:17:45;;;;;;;3.67;2.60;;;;;;;;;;5118849;28;20031;-48
2022/06/05 00:20:11;;;;;;;3.78;2.60;;;;;;;;;;5118802;28;20042;-47
2022/06/05 00:22:40;;;;;;;2.40;2.20;;;23.00;63.20;;;;;;5118690;28;20093;-47
2022/06/05 00:25:07;;;;;;;3.03;2.17;;;23.00;69.40;;;;;;5114693;28;20024;-47
2022/06/05 00:27:46;;;;;;;2.63;2.30;;;22.90;63.10;;;;;;5115411;28;20028;-47
2022/06/05 00:30:23;;;;;;;2.47;2.28;;;22.90;63.20;;;;;;5115453;28;20035;-47
2022/06/05 00:33:02;;;;;;;2.63;2.33;;;22.90;69.30;;;;;;5115432;28;20019;-47
2022/06/05 00:35:32;;;;;;;4.63;2.25;;;;;;;;;;5115542;28;20051;-48
2022/06/05 00:38:03;;;;;;;2.22;1.92;;;22.90;69.30;;;;;;5115253;28;20110;-47
2022/06/05 00:40:32;;;;;;;3.35;2.00;;;22.90;69.20;;;;;;5115462;28;20039;-47
2022/06/05 00:42:59;;;;;;;3.20;2.40;;;22.90;69.20;;;;;;5115208;28;20466;-48
2022/06/05 00:45:27;;;;;;;3.33;2.35;;;22.90;69.20;;;;;;5115079;28;20059;-47
2022/06/05 00:47:53;;;;;;;2.17;2.05;;;;;;;;;;5115120;28;20386;-48
2022/06/05 00:50:27;;;;;;;2.30;2.05;;;22.90;63.10;;;;;;5115075;28;20059;-48
2022/06/05 00:52:55;;;;;;;2.53;2.05;;;22.90;69.30;;;;;;5115009;28;20054;-47
2022/06/05 00:55:22;;;;;;;2.20;2.03;;;;;;;;;;5115016;28;20027;-47
2022/06/05 00:57:48;;;;;;;2.63;1.92;;;;;;;;;;5114910;28;20031;-49
2022/06/05 01:00:16;;;;;;;4.13;2.47;;;22.80;63.10;;;;;;5114897;28;20032;-47
2022/06/05 01:02:45;;;;;;;3.00;2.42;;;22.90;69.10;;;;;;5114532;28;20047;-48
2022/06/05 01:05:14;;;;;;;2.60;2.15;;;22.90;69.10;;;;;;5114847;28;20493;-48
2022/06/05 01:07:40;;;;;;;2.72;2.20;;;22.90;66.40;;;;;;5114781;28;20096;-48
2022/06/05 01:10:07;;;;;;;2.80;2.40;;;22.70;66.20;;;;;;5114668;28;20039;-48
2022/06/05 01:12:48;;;;;;;2.95;2.10;;;22.90;63.10;;;;;;5114415;28;20490;-48
2022/06/05 01:15:43;;;;;;;2.28;2.08;;;22.90;62.80;;;;;;5114519;28;20031;-49
2022/06/05 01:18:27;;;;;;;2.63;1.90;;;22.80;62.40;;;;;;5114590;28;20034;-47
2022/06/05 01:21:08;;;;;;;2.47;2.28;;;22.90;62.50;;;;;;5114748;28;20019;-49
2022/06/05 01:23:54;;;;;;;3.03;2.20;;;22.80;68.80;;;;;;5114381;28;20027;-49
2022/06/05 01:26:45;;;;;;;1.98;1.85;;;22.80;62.70;;;;;;5062540;28;20036;-49
2022/06/05 01:29:19;;;;;;;2.90;2.38;;;22.80;62.60;;;;;;5102751;28;20031;-48
2022/06/05 01:31:59;;;;;;;2.70;2.08;;;22.90;69.00;;;;;;5114152;28;20062;-47
2022/06/05 01:34:33;;;;;;;2.00;1.90;;;22.80;69.10;;;;;;5114116;28;20015;-47
2022/06/05 01:37:27;;;;;;;2.30;2.00;;;22.80;63.00;;;;;;5113449;28;20385;-47
2022/06/05 01:40:34;;;;;;;2.40;1.98;;;22.80;62.80;;;;;;5114092;28;20035;-47
2022/06/05 01:43:08;;;;;;;3.10;2.05;;;22.70;63.10;;;;;;5011450;28;20497;-48
2022/06/05 01:45:34;;;;;;;3.05;2.45;;;;;;;;;;5099158;28;20105;-49
2022/06/05 01:48:02;;;;;;;1.98;1.88;;;22.80;69.20;;;;;;5113902;28;20023;-48
2022/06/05 01:50:39;;;;;;;2.65;2.30;;;22.80;63.10;;;;;;5114094;28;20074;-48
2022/06/05 01:53:21;;;;;;;2.78;2.20;;;22.80;62.90;;;;;;5113897;28;20035;-48
2022/06/05 01:55:47;;;;;;;2.72;2.10;;;;;;;;;;5113720;28;20032;-49
2022/06/05 01:58:16;;;;;;;2.70;2.50;;;22.90;69.20;;;;;;5113965;28;20020;-48
2022/06/05 02:00:46;;;;;;;2.45;2.25;;;22.80;69.40;;;;;;5113709;28;20190;-49
2022/06/05 02:03:23;;;;;;;2.45;2.15;;;22.80;63.20;;;;;;5113518;28;20051;-48
2022/06/05 02:05:49;;;;;;;2.42;2.17;;;;;;;;;;5113619;28;20058;-47
2022/06/05 02:08:56;;;;;;;2.17;1.98;;;22.70;63.20;;;;;;5113540;28;20027;-48
2022/06/05 02:11:26;;;;;;;3.38;2.15;;;22.80;69.30;;;;;;5112764;28;20136;-48
2022/06/05 02:14:00;;;;;;;2.15;2.00;;;22.80;63.10;;;;;;5113452;28;20020;-47
2022/06/05 02:16:28;;;;;;;2.72;2.05;;;22.70;69.10;;;;;;5113459;28;20032;-48
2022/06/05 02:18:54;;;;;;;2.72;2.50;;;;;;;;;;5113539;28;20036;-47
2022/06/05 02:21:21;;;;;;;3.72;2.55;;;;;;;;;;5113415;28;20378;-48
2022/06/05 02:23:47;;;;;;;2.10;2.00;;;;;;;;;;5113280;28;20554;-48
2022/06/05 02:26:12;;;;;;;2.55;1.75;;;;;;;;;;5113206;28;20020;-47
2022/06/05 02:28:39;;;;;;;4.85;2.60;;;22.80;66.60;;;;;;5113190;28;20037;-47
2022/06/05 02:31:37;;;;;;;2.25;2.05;;;22.70;62.80;;;;;;5112989;28;20039;-47
2022/06/05 02:34:34;;;;;;;2.90;2.60;;;22.70;62.80;;;;;;5108164;28;20486;-48
2022/06/05 02:37:00;;;;;;;3.30;2.90;;;;;;;;;;5113236;28;20034;-48
2022/06/05 02:39:45;;;;;;;2.47;2.20;;;22.70;62.30;;;;;;5113089;28;20490;-47
2022/06/05 02:42:31;;;;;;;3.20;2.10;;;22.60;62.10;;;;;;5112934;28;20076;-47
2022/06/05 02:45:16;;;;;;;3.85;2.60;;;22.70;62.20;;;;;;5112823;28;20099;-48
2022/06/05 02:47:59;;;;;;;3.50;2.28;;;22.70;62.30;;;;;;5112488;28;20470;-47
2022/06/05 02:50:54;;;;;;;3.10;2.15;;;22.60;61.80;;;;;;5112830;28;20043;-49
2022/06/05 02:53:21;;;;;;;3.60;2.42;;;;;;;;;;5112823;28;20064;-48
2022/06/05 02:55:47;;;;;;;3.40;2.35;;;;;;;;;;5112812;28;20668;-48
2022/06/05 02:58:13;;;;;;;2.92;2.40;;;;;;;;;;5112789;28;20024;-49
2022/06/05 03:00:39;;;;;;;3.13;2.47;;;;;;;;;;5112723;28;20474;-49
2022/06/05 03:05:50;;;;;;;2.60;2.30;;;;;;;;;;5113018;28;20389;-47
2022/06/05 03:08:18;;;;;;;2.63;2.42;;;22.60;67.90;;;;;;5112602;28;20465;-47
2022/06/05 03:10:44;;;;;;;2.95;2.28;;;;;;;;;;5112794;28;20063;-47
2022/06/05 03:13:11;;;;;;;2.88;2.60;;;;;;;;;;5112502;28;20024;-47
2022/06/05 03:15:37;;;;;;;2.75;2.40;;;;;;;;;;5112613;28;20035;-47
2022/06/05 03:18:03;;;;;;;4.38;2.72;;;;;;;;;;5112563;28;20073;-47
2022/06/05 03:20:29;;;;;;;2.65;2.08;;;;;;;;;;5112480;28;20037;-47
2022/06/05 03:22:55;;;;;;;2.42;2.20;;;;;;;;;;5112477;28;20028;-47
2022/06/05 03:25:23;;;;;;;2.42;2.22;;;22.50;68.60;;;;;;5112371;28;20036;-48
2022/06/05 03:27:49;;;;;;;3.60;2.55;;;;;;;;;;5112521;28;20035;-47
2022/06/05 03:30:16;;;;;;;2.90;2.42;;;22.50;66.50;;;;;;5112286;28;20127;-47
2022/06/05 03:32:42;;;;;;;3.45;2.55;;;22.50;68.90;;;;;;5112341;28;20020;-47
2022/06/05 03:35:09;;;;;;;2.63;2.42;;;22.50;68.30;;;;;;5112313;28;20036;-47
2022/06/05 03:37:36;;;;;;;4.57;2.20;;;;;;;;;;5112422;28;20051;-49
2022/06/05 03:40:02;;;;;;;3.30;3.00;;;;;;;;;;5112680;28;20024;-48
2022/06/05 03:42:28;;;;;;;3.65;2.60;;;;;;;;;;5112287;28;20024;-48
2022/06/05 03:44:54;;;;;;;2.47;2.10;;;;;;;;;;5112324;28;20026;-48
2022/06/05 03:47:20;;;;;;;3.10;2.38;;;;;;;;;;5112190;28;20110;-47
2022/06/05 03:49:46;;;;;;;4.88;2.85;;;;;;;;;;5112210;28;20034;-47
2022/06/05 03:52:12;;;;;;;3.88;2.50;;;;;;;;;;5112450;28;20031;-48
2022/06/05 03:54:39;;;;;;;4.95;2.60;;;22.50;68.80;;;;;;5112261;28;20371;-48
2022/06/05 03:57:05;;;;;;;2.47;2.20;;;22.50;66.10;;;;;;5112141;28;20027;-47
2022/06/05 03:59:31;;;;;;;3.30;2.60;;;;;;;;;;5114212;28;20046;-47
2022/06/05 04:01:57;;;;;;;2.55;2.35;;;;;;;;;;5115919;28;20036;-48
2022/06/05 04:04:23;;;;;;;2.50;2.17;;;;;;;;;;5115749;28;20047;-47
2022/06/05 04:06:49;;;;;;;2.83;2.60;;;;;;;;;;5116180;28;20066;-47
2022/06/05 04:09:15;;;;;;;2.88;2.53;;;;;;;;;;5115854;28;20055;-47
2022/06/05 04:11:41;;;;;;;3.75;2.45;;;;;;;;;;5115765;28;20507;-48
2022/06/05 04:14:08;;;;;;;3.28;2.40;;;22.40;68.70;;;;;;5115843;28;20032;-47
2022/06/05 04:16:36;;;;;;;2.72;2.28;;;22.40;68.70;;;;;;5115697;28;20397;-47
2022/06/05 04:19:03;;;;;;;6.30;2.22;;;22.40;68.70;;;;;;5115727;28;20149;-47
2022/06/05 04:21:33;;;;;;;3.33;2.60;;;22.40;68.50;;;;;;5115618;28;20035;-48
2022/06/05 04:23:59;;;;;;;4.05;2.90;;;;;;;;;;5115697;28;20020;-47
2022/06/05 04:26:30;;;;;;;2.55;2.35;;;22.40;68.50;;;;;;5115764;28;20028;-47
2022/06/05 04:28:56;;;;;;;3.95;2.78;;;;;;;;;;5115577;28;20633;-49
2022/06/05 04:31:27;;;;;;;3.58;2.45;;;22.40;62.50;;;;;;5115486;28;20448;-47
2022/06/05 04:33:56;;;;;;;5.05;2.85;;;22.40;69.00;;;;;;5115682;28;20103;-48
2022/06/05 04:36:22;;;;;;;3.08;2.53;;;;;;;;;;5115331;28;20051;-47
2022/06/05 04:38:48;;;;;;;3.28;2.30;;;22.40;65.80;;;;;;5115301;28;20028;-47
2022/06/05 04:41:15;;;;;;;6.47;2.45;;;22.40;68.70;;;;;;5115319;28;20031;-47
2022/06/05 04:43:41;;;;;;;3.40;2.78;;;;;;;;;;5115409;28;20022;-48
2022/06/05 04:46:08;;;;;;;2.38;2.15;;;;;;;;;;5115206;28;20386;-47
2022/06/05 04:48:34;;;;;;;2.55;2.35;;;22.40;66.20;;;;;;5115122;28;20030;-48
2022/06/05 04:51:04;;;;;;;3.70;2.42;;;22.30;68.40;;;;;;5115065;28;20040;-47
2022/06/05 04:53:30;;;;;;;2.53;2.33;;;;;;;;;;5114895;28;20115;-47
2022/06/05 04:55:56;;;;;;;2.78;2.47;;;;;;;;;;5115025;28;20246;-48
2022/06/05 04:58:22;;;;;;;3.03;2.47;;;;;;;;;;5114861;28;20386;-47
2022/06/05 05:00:48;;;;;;;3.05;2.60;;;;;;;;;;5115146;28;20024;-47
2022/06/05 05:03:14;;;;;;;2.65;2.45;;;;;;;;;;5114625;28;20494;-49
2022/06/05 05:05:40;;;;;;;3.75;2.28;;;;;;;;;;5114762;28;20032;-47
2022/06/05 05:08:06;;;;;;;3.53;2.17;;;;;;;;;;5114833;28;20059;-47
2022/06/05 05:10:32;;;;;;;2.38;2.20;;;;;;;;;;5114250;28;20032;-47
2022/06/05 05:12:58;;;;;;;2.60;2.40;;;;;;;;;;5114603;28;20035;-47
2022/06/05 05:15:25;;;;;;;1.85;1.75;;;;;;;;;;5114718;28;20098;-47
2022/06/05 05:17:51;;;;;;;3.47;2.80;;;;;;;;;;5114544;28;20036;-48
2022/06/05 05:20:17;;;;;;;3.38;2.45;;;;;;;;;;5114472;28;20039;-48
2022/06/05 05:22:43;;;;;;;2.25;2.05;;;;;;;;;;5114367;28;20062;-47
2022/06/05 05:25:11;;;;;;;2.22;2.03;;;22.30;68.20;;;;;;5114735;28;20028;-47
2022/06/05 05:27:37;;;;;;;2.40;2.20;;;;;;;;;;5114422;28;20035;-47
2022/06/05 05:30:07;;;;;;;3.45;2.47;;;22.30;68.10;;;;;;5114292;28;20044;-47
2022/06/05 05:32:33;;;;;;;3.70;2.55;;;;;;;;;;5114187;28;20077;-47
2022/06/05 05:34:59;;;;;;;2.65;2.45;;;;;;;;;;5114214;28;20031;-47
2022/06/05 05:37:25;;;;;;;3.10;2.38;;;;;;;;;;5114167;28;20023;-47
2022/06/05 05:42:35;;;;;;;2.67;2.47;;;;;;;;;;5114440;28;20546;-48
2022/06/05 05:45:01;;;;;;;3.30;2.38;;;;;;;;;;5114105;28;20035;-46
2022/06/05 05:47:31;;;;;;;3.53;2.42;;;22.30;69.20;;;;;;5113947;28;20076;-47
2022/06/05 05:49:59;;;;;;;2.60;2.40;;;22.30;69.20;;;;;;5113894;28;20074;-47
2022/06/05 05:52:26;;;;;;;3.28;2.53;;;22.20;69.20;;;;;;5113918;28;20102;-48
2022/06/05 05:54:52;;;;;;;3.53;2.47;;;;;;;;;;5113805;28;20027;-48
2022/06/05 05:57:18;;;;;;;3.00;2.60;;;22.30;66.20;;;;;;5114018;28;20024;-48
2022/06/05 05:59:44;;;;;;;3.28;2.65;;;;;;;;;;5113688;28;20024;-49
2022/06/05 06:02:16;;;;;;;2.30;2.00;;;22.50;68.90;;;;;;5113585;28;20047;-47
2022/06/05 06:04:42;;;;;;;3.42;2.60;;;;;;;;;;5113657;28;20059;-47
2022/06/05 06:07:08;;;;;;;4.03;2.50;;;;;;;;;;5113566;28;20024;-48
2022/06/05 06:09:34;;;;;;;3.47;2.70;;;22.40;65.50;;;;;;5113777;28;20035;-49
2022/06/05 06:12:01;;;;;;;3.60;2.40;;;22.40;66.90;;;;;;5113395;28;20391;-47
2022/06/05 06:14:27;;;;;;;3.67;2.20;;;;;;;;;;5113445;28;20027;-47
2022/06/05 06:16:53;;;;;;;2.45;2.25;;;;;;;;;;5113373;28;20034;-48
2022/06/05 06:19:19;;;;;;;2.55;2.35;;;;;;;;;;5113365;28;20482;-47
2022/06/05 06:21:45;;;;;;;2.85;2.22;;;;;;;;;;5112964;28;20083;-48
2022/06/05 06:24:12;;;;;;;2.83;2.47;;;22.40;68.40;;;;;;5113213;28;20027;-49
2022/06/05 06:26:38;;;;;;;3.80;3.15;;;;;;;;;;5113241;28;20028;-48
2022/06/05 06:29:04;;;;;;;3.70;2.58;;;;;;;;;;5113205;28;20078;-49
2022/06/05 06:31:30;;;;;;;3.17;2.28;;;;;;;;;;5113172;28;20039;-48
2022/06/05 06:33:56;;;;;;;3.05;2.75;;;;;;;;;;5113086;28;20032;-49
2022/06/05 06:36:22;;;;;;;2.75;2.53;;;;;;;;;;5113102;28;20031;-48
2022/06/05 06:38:48;;;;;;;3.42;2.22;;;;;;;;;;5113328;28;20024;-47
2022/06/05 06:41:17;;;;;;;4.40;2.60;;;22.30;68.70;;;;;;5113053;28;20027;-47
2022/06/05 06:43:46;;;;;;;2.38;2.10;;;22.40;65.40;;;;;;5112961;28;20091;-47
2022/06/05 06:46:12;;;;;;;3.03;2.63;;;22.30;68.50;;;;;;5113145;28;20023;-49
2022/06/05 06:48:39;;;;;;;2.95;2.42;;;;;;;;;;5112933;28;20034;-48
2022/06/05 06:51:06;;;;;;;2.63;2.42;;;22.30;68.90;;;;;;5112683;28;20041;-49
2022/06/05 06:53:33;;;;;;;2.42;2.22;;;22.40;68.20;;;;;;5112801;28;20069;-49
2022/06/05 06:55:59;;;;;;;3.47;2.85;;;;;;;;;;5112718;28;20505;-47
2022/06/05 06:58:26;;;;;;;2.92;2.63;;;;;;;;;;5112879;28;20390;-51
2022/06/05 07:00:52;;;;;;;2.55;2.35;;;;;;;;;;5112650;28;20057;-48
2022/06/05 07:03:18;;;;;;;3.90;2.45;;;;;;;;;;5112483;28;20483;-50
2022/06/05 07:05:44;;;;;;;2.50;2.28;;;;;;;;;;5112727;28;20027;-52
2022/06/05 07:08:10;;;;;;;4.90;2.53;;;22.40;65.60;;;;;;5112629;28;20035;-50
2022/06/05 07:10:37;;;;;;;3.88;2.60;;;22.40;69.20;;;;;;5112476;28;20050;-52
2022/06/05 07:13:03;;;;;;;3.60;2.67;;;;;;;;;;5112668;28;20355;-52
2022/06/05 07:15:34;;;;;;;3.90;2.50;;;;;;;;;;5112485;28;20640;-52
2022/06/05 07:18:03;;;;;;;;;;;22.10;62.80;;;;;;5112921;28;20065;-55
2022/06/05 07:20:32;;;;;;;3.70;2.75;;;22.30;69.30;;;;;;5112420;28;19950;-54
2022/06/05 07:22:58;;;;;;;3.67;2.70;;;;;;;;;;5112311;28;20081;-52
2022/06/05 07:25:24;;;;;;;3.30;2.85;;;;;;;;;;5112595;28;20407;-54
2022/06/05 07:27:50;;;;;;;4.70;2.85;;;;;;;;;;5112332;28;20501;-55
2022/06/05 07:30:16;;;;;;;3.95;2.40;;;;;;;;;;5112194;28;20039;-53
2022/06/05 07:32:42;;;;;;;2.38;2.20;;;;;;;;;;5113275;28;20028;-51
2022/06/05 07:35:12;;;;;;;3.63;2.50;;;22.30;69.20;;;;;;5116605;28;20111;-49
2022/06/05 07:37:38;;;;;;;2.28;2.10;;;;;;;;;;5116723;28;20038;-48
2022/06/05 07:40:04;;;;;;;2.40;2.20;;;;;;;;;;5116689;28;20028;-48
2022/06/05 07:42:30;;;;;;;3.00;2.50;;;;;;;;;;5116526;28;20082;-48
2022/06/05 07:44:56;;;;;;;6.43;2.90;;;;;;;;;;5116339;28;20144;-48
2022/06/05 07:47:22;;;;;;;5.93;2.78;;;;;;;;;;5116202;28;20028;-49
2022/06/05 07:49:48;;;;;;;5.55;2.40;;;;;;;;;;5116497;28;20028;-47
2022/06/05 07:54:59;;;;;;;3.88;2.72;;;;;;;;;;5116377;28;20038;-47
2022/06/05 07:57:25;;;;;;;5.63;2.63;;;;;;;;;;5116171;28;20575;-48
2022/06/05 07:59:51;;;;;;;3.70;2.53;;;;;;;;;;5116226;28;20035;-48
2022/06/05 08:02:21;;;;;;;3.15;2.20;;;22.50;69.70;;;;;;5115768;28;20035;-47
2022/06/05 08:04:48;;;;;;;6.82;2.45;;;22.50;69.90;;;;;;5115963;28;20084;-47
2022/06/05 08:07:20;;;;;;;5.53;3.00;;;22.50;69.80;;;;;;5115878;28;20024;-47
2022/06/05 08:09:46;;;;;;;5.75;2.30;;;22.50;69.60;;;;;;5115888;28;20032;-47
2022/06/05 08:12:15;;;;;;;4.55;2.90;;;22.60;69.70;;;;;;5115869;28;20027;-49
2022/06/05 08:14:44;;;;;;;3.63;2.72;;;22.50;69.40;;;;;;5116138;28;20504;-48
2022/06/05 08:17:13;;;;;;;2.80;2.03;;;22.60;69.40;;;;;;5115754;28;20474;-48
2022/06/05 08:19:41;;;;;;;6.87;3.07;;;22.60;69.40;;;;;;5115557;28;20027;-48
2022/06/05 08:22:09;;;;;;;8.02;2.50;;;22.60;69.50;;;;;;5115628;28;20763;-47
2022/06/05 08:24:35;;;;;;;5.03;2.90;;;;;;;;;;5115603;28;20048;-49
2022/06/05 08:27:01;;;;;;;3.50;2.28;;;;;;;;;;5115603;28;20064;-48
2022/06/05 08:29:27;;;;;;;3.10;2.80;;;;;;;;;;5115816;28;20414;-47
2022/06/05 08:31:53;;;;;;;3.53;2.58;;;;;;;;;;5115759;28;20484;-48
2022/06/05 08:34:20;;;;;;;3.28;2.97;;;;;;;;;;5115442;28;20073;-49
2022/06/05 08:36:46;;;;;;;4.40;2.70;;;;;;;;;;5115430;28;20026;-49
2022/06/05 08:42:27;;;;;;;4.93;2.67;;;22.70;62.60;;;;;;5115489;28;20077;-48
2022/06/05 08:44:58;;;;;;;3.85;3.08;;;22.80;68.30;;;;;;5114650;28;20019;-47
2022/06/05 08:47:51;;;;;;;4.53;2.45;;;22.70;67.60;;;;;;5115212;28;20020;-47
2022/06/05 08:50:28;;;;;;;3.88;2.30;;;22.80;61.50;;;;;;5115101;28;20371;-48
2022/06/05 08:52:58;;;;;;;2.75;2.55;;;22.70;67.20;;;;;;5115392;28;20023;-47
2022/06/05 08:55:24;;;;;;;3.78;2.35;;;;;;;;;;5114906;28;20474;-48
2022/06/05 08:57:55;;;;;;;3.60;2.58;;;23.10;67.00;;;;;;5114692;28;20027;-49
2022/06/05 09:00:32;;;;;;;3.45;2.75;;;22.90;61.00;;;;;;5114686;28;20056;-48
2022/06/05 09:03:03;;;;;;;2.67;2.47;;;22.90;61.00;;;;;;5114439;28;20083;-49
2022/06/05 09:05:38;;;;;;;3.35;2.40;;;22.90;66.80;;;;;;5114569;28;20028;-48
2022/06/05 09:08:18;;;;;;;2.53;2.10;;;22.90;66.60;;;;;;5114926;28;20024;-47
2022/06/05 09:10:49;;;;;;;2.47;2.28;;;23.10;60.80;;;;;;5114376;28;20550;-48
2022/06/05 09:13:15;;;;;;;2.60;2.40;;;;;;;;;;5114601;28;20024;-48
2022/06/05 09:15:48;;;;;;;3.20;2.63;;;23.00;60.60;;;;;;5114860;28;20031;-47
2022/06/05 09:18:19;;;;;;;3.78;2.60;;;22.70;60.70;;;;;;5114672;28;20485;-47
2022/06/05 09:20:45;;;;;;;3.22;2.42;;;;;;;;;;5114908;28;20036;-49
2022/06/05 09:23:26;;;;;;;4.85;2.40;;;23.00;61.40;;;;;;5114597;28;20600;-47
2022/06/05 09:25:52;;;;;;;2.50;2.05;;;;;;;;;;5114714;28;20035;-47
2022/06/05 09:28:52;;;;;;;5.07;2.80;;;23.10;61.80;;;;;;5096131;28;20030;-47
2022/06/05 09:31:50;;;;;;;3.28;2.67;;;22.90;62.10;;;;;;5114269;28;20039;-48
2022/06/05 09:34:26;;;;;;;3.25;2.95;;;23.00;61.90;;;;;;5114314;28;20031;-48
2022/06/05 09:37:24;;;;;;;3.25;2.55;;;23.00;63.20;;;;;;5113913;28;20034;-48
2022/06/05 09:39:56;;;;;;;2.72;2.47;;;23.00;67.80;;;;;;5094269;28;20061;-48
2022/06/05 09:42:23;;;;;;;3.25;2.65;;;;;;;;;;5114135;28;20085;-52
2022/06/05 09:44:48;;;;;;;3.13;2.40;;;;;;;;;;5113932;28;20024;-54
2022/06/05 09:47:23;;;;;;;6.93;2.78;;;23.00;68.00;;;;;;5113961;28;20029;-50
2022/06/05 09:49:54;;;;;;;4.03;2.55;;;22.80;68.00;;;;;;5096020;28;20496;-54
2022/06/05 09:52:22;;;;;;;5.40;2.65;;;22.80;68.10;;;;;;5113976;28;20474;-53
2022/06/05 09:55:00;;;;;;;4.18;2.55;;;23.10;68.10;;;;;;5113790;28;20027;-48
2022/06/05 10:00:37;;;;;;;4.18;2.40;;;23.10;61.80;;;;;;5114142;28;20520;-50
2022/06/05 10:03:11;;;;;;;3.53;2.40;;;23.20;62.20;;;;;;5113506;28;20052;-48
2022/06/05 10:05:45;;;;;;;2.70;2.50;;;23.30;68.30;;;;;;5113581;28;20037;-49
2022/06/05 10:08:19;;;;;;;3.42;2.10;;;23.40;62.20;;;;;;5113849;28;20051;-53
2022/06/05 10:10:47;;;;;;;3.58;2.47;;;23.50;68.20;;;;;;5113268;28;20031;-49
2022/06/05 10:13:13;;;;;;;3.90;2.42;;;;;;;;;;5113417;28;20478;-49
2022/06/05 10:16:04;;;;;;;3.17;2.40;;;23.40;68.00;;;;;;5113109;28;20023;-49
2022/06/05 10:18:47;;;;;;;2.67;2.30;;;23.40;61.70;;;;;;5112664;28;20055;-49
2022/06/05 10:21:14;;;;;;;3.78;2.15;;;23.60;68.00;;;;;;5113267;28;20111;-50
2022/06/05 10:23:49;;;;;;;2.38;2.17;;;23.60;68.20;;;;;;5113248;28;20209;-50
2022/06/05 10:26:26;;;;;;;4.28;2.25;;;23.70;62.10;;;;;;5113080;28;20026;-49
2022/06/05 10:29:06;;;;;;;3.60;2.38;;;23.60;68.00;;;;;;5113044;28;20024;-50
2022/06/05 10:31:35;;;;;;;2.30;2.10;;;23.70;67.90;;;;;;5113091;28;20031;-50
2022/06/05 10:34:21;;;;;;;2.85;2.53;;;23.70;61.50;;;;;;5112886;28;20020;-50
2022/06/05 10:36:50;;;;;;;4.20;2.70;;;23.80;61.50;;;;;;5112856;28;20106;-50
2022/06/05 10:39:40;;;;;;;3.15;2.00;;;23.70;61.80;;;;;;5113265;28;20439;-49
2022/06/05 10:42:38;;;;;;;2.08;1.98;;;23.80;61.80;;;;;;5112879;28;20055;-48
2022/06/05 10:45:42;;;;;;;2.65;2.45;;;23.80;61.90;;;;;;5071498;28;20039;-50
2022/06/05 10:48:08;;;;;;;2.85;2.22;;;;;;;;;;5094594;28;20119;-54
2022/06/05 10:50:58;;;;;;;3.65;2.03;;;23.90;67.90;;;;;;5112637;28;20494;-49
2022/06/05 10:53:39;;;;;;;2.42;2.22;;;23.90;61.70;;;;;;5113066;28;20382;-49
2022/06/05 10:56:12;;;;;;;2.50;1.98;;;23.90;61.70;;;;;;5112782;28;20024;-50
2022/06/05 10:58:53;;;;;;;2.58;2.38;;;24.00;61.60;;;;;;5112701;28;20027;-49
2022/06/05 11:01:56;;;;;;;2.83;2.05;;;23.80;61.40;;;;;;5112634;28;20024;-49
2022/06/05 11:04:47;;;;;;;2.53;1.90;;;24.00;61.30;;;;;;5112457;28;20055;-53
2022/06/05 11:07:15;;;;;;;3.53;2.00;;;24.00;61.50;;;;;;5112288;28;20031;-48
2022/06/05 11:10:14;;;;;;;3.35;1.95;;;23.90;61.20;;;;;;5112479;28;20041;-49
2022/06/05 11:15:54;;;;;;;2.30;2.15;;;24.10;61.00;;;;;;5112937;28;20120;-49
2022/06/05 11:18:51;;;;;;;2.35;2.10;;;24.00;60.70;;;;;;5112585;28;20133;-48
2022/06/05 11:21:20;;;;;;;3.22;2.47;;;24.00;66.60;;;;;;5112488;28;20153;-48
2022/06/05 11:23:54;;;;;;;5.70;2.40;;;24.10;66.70;;;;;;5112518;28;20027;-49
2022/06/05 11:26:52;;;;;;;4.18;2.30;;;24.10;60.50;;;;;;5112536;28;20043;-48
2022/06/05 11:29:48;;;;;;;2.88;2.22;;;24.10;60.60;;;;;;5112715;28;20069;-49
2022/06/05 11:32:22;;;;;;;1.98;1.80;;;24.10;66.60;;;;;;5112425;28;20039;-50
2022/06/05 11:34:59;;;;;;;2.20;1.98;;;24.00;60.50;;;;;;5112547;28;20367;-50
2022/06/05 11:37:35;;;;;;;2.08;1.98;;;24.00;60.30;;;;;;5112462;28;20031;-50
2022/06/05 11:40:37;;;;;;;4.05;2.10;;;24.00;60.70;;;;;;5112618;28;20027;-49
2022/06/05 11:43:26;;;;;;;2.50;2.30;;;24.20;61.00;;;;;;5112322;28;20410;-48
2022/06/05 11:45:54;;;;;;;4.72;2.25;;;24.00;61.00;;;;;;5112361;28;20039;-49
2022/06/05 11:48:31;;;;;;;2.42;2.10;;;24.00;67.00;;;;;;5112252;28;20110;-52
2022/06/05 11:51:26;;;;;;;2.65;2.35;;;24.10;61.00;;;;;;5112301;28;20031;-49
2022/06/05 11:54:25;;;;;;;5.85;3.33;;;24.00;61.30;;;;;;5109241;28;20040;-54
2022/06/05 11:57:21;;;;;;;3.07;2.77;;;24.00;61.50;;;;;;5112355;28;20027;-49
2022/06/05 12:00:14;;;;;;;3.90;3.10;;;23.90;61.50;;;;;;5112109;28;20217;-54
2022/06/05 12:03:31;;;;;;;3.47;2.80;;;24.00;61.60;;;;;;5111797;28;20047;-49
2022/06/05 12:06:16;;;;;;;2.90;2.70;;;24.00;61.40;;;;;;5069145;28;20069;-48
2022/06/05 12:08:48;;;;;;;3.05;2.55;;;24.00;67.70;;;;;;5112223;28;20019;-50
2022/06/05 12:11:22;;;;;;;3.22;2.92;;;24.00;67.80;;;;;;5112040;28;20106;-49
2022/06/05 12:14:19;;;;;;;2.92;2.53;;;24.00;61.70;;;;;;5111986;28;20066;-49
2022/06/05 12:17:04;;;;;;;3.33;2.33;;;23.90;61.40;;;;;;5112025;28;20273;-49
2022/06/05 12:19:51;;;;;;;9.13;2.90;;;23.80;61.50;;;;;;5112375;28;20172;-51
2022/06/05 12:22:27;;;;;;;3.85;2.60;;;24.00;62.00;;;;;;5115616;28;20035;-49
2022/06/05 12:24:53;;;;;;;6.80;3.47;;;;;;;;;;5115790;28;20035;-53
2022/06/05 12:27:22;;;;;;;2.67;2.47;;;;;;;;;;5115772;28;20015;-51
2022/06/05 12:29:48;;;;;;;2.78;2.58;;;;;;;;;;5115380;28;20512;-53
2022/06/05 12:32:28;;;;;;;4.35;3.30;;;24.30;68.50;;;;;;5115369;28;20039;-51
2022/06/05 12:35:14;;;;;;;3.50;3.20;;;24.10;68.40;;;;;;5115787;28;20081;-50
2022/06/05 12:37:51;;;;;;;6.38;3.58;;;24.10;68.40;;;;;;5115670;28;20023;-51
2022/06/05 12:40:21;;;;;;;3.67;3.38;;;24.10;68.40;;;;;;5115150;28;20671;-50
2022/06/05 12:43:20;;;;;;;3.70;2.83;;;24.00;62.10;;;;;;5115238;28;20099;-51
2022/06/05 12:45:52;;;;;;;3.90;3.53;;;24.00;68.20;;;;;;5114475;28;20142;-50
2022/06/05 12:48:27;;;;;;;6.53;3.05;;;24.00;62.50;;;;;;5115110;28;20046;-51
2022/06/05 12:51:03;;;;;;;5.00;3.42;;;21.70;67.40;;;;;;5114962;28;20108;-52
2022/06/05 12:53:46;;;;;;;4.20;3.50;;;24.00;63.00;;;;;;5114855;28;20024;-50
2022/06/05 12:56:12;;;;;;;5.50;3.78;;;;;;;;;;5115107;28;20468;-48
2022/06/05 12:58:46;;;;;;;4.20;3.58;;;23.70;68.80;;;;;;5114705;28;20051;-49
2022/06/05 13:01:21;;;;;;;5.82;4.05;;;23.90;69.30;;;;;;5114881;28;20098;-49
2022/06/05 13:03:47;;;;;;;3.72;3.05;;;;;;;;;;5114761;28;20496;-49
2022/06/05 13:06:36;;;;;;;3.92;3.00;;;23.80;63.20;;;;;;5114901;28;20103;-49
2022/06/05 13:09:26;;;;;;;10.48;4.45;;;23.80;70.00;;;;;;5114748;28;20036;-49
2022/06/05 13:12:25;;;;;;;5.07;4.03;;;23.80;63.80;;;;;;5114501;28;20134;-49
2022/06/05 13:15:12;;;;;;;4.55;3.75;;;23.80;63.40;;;;;;5058235;28;20031;-50
2022/06/05 13:18:01;;;;;;;6.00;4.20;;;23.80;63.60;;;;;;5114526;28;20055;-50
2022/06/05 13:20:56;;;;;;;3.70;3.10;;;23.80;63.20;;;;;;5114511;28;20031;-48
2022/06/05 13:23:54;;;;;;;4.65;3.35;;;23.70;63.40;;;;;;5114855;28;20066;-49
2022/06/05 13:26:20;;;;;;;3.22;2.92;;;;;;;;;;5114515;28;20053;-48
2022/06/05 13:29:10;;;;;;;5.28;3.55;;;23.70;63.20;;;;;;5114380;28;20063;-51
2022/06/05 13:31:52;;;;;;;5.40;3.90;;;23.60;64.30;;;;;;5113830;28;20035;-49
2022/06/05 13:34:30;;;;;;;3.63;3.22;;;23.60;64.90;;;;;;5114276;28;20070;-49
2022/06/05 13:36:58;;;;;;;4.15;3.50;;;23.60;64.50;;;;;;5096014;28;20058;-50
2022/06/05 13:39:37;;;;;;;3.78;2.85;;;23.60;70.20;;;;;;5114104;28;20073;-49
2022/06/05 13:42:11;;;;;;;5.38;3.97;;;23.60;70.40;;;;;;5114366;28;20051;-48
2022/06/05 13:44:38;;;;;;;5.20;4.20;;;23.50;70.60;;;;;;5114069;28;20055;-49
2022/06/05 13:47:15;;;;;;;5.55;3.33;;;23.50;70.60;;;;;;5114069;28;20032;-49
2022/06/05 13:49:53;;;;;;;5.28;3.40;;;23.40;70.20;;;;;;5113918;28;20351;-48
2022/06/05 13:52:34;;;;;;;5.90;3.78;;;23.40;64.20;;;;;;5113966;28;20036;-48
2022/06/05 13:55:09;;;;;;;7.22;3.95;;;23.40;64.40;;;;;;5113845;28;20024;-49
2022/06/05 13:58:05;;;;;;;5.07;3.72;;;23.40;70.10;;;;;;5113858;28;20115;-49
2022/06/05 14:00:32;;;;;;;8.80;3.67;;;;;;;;;;5113772;28;20038;-49
2022/06/05 14:03:02;;;;;;;5.22;4.70;;;23.40;70.10;;;;;;5113487;28;20039;-48
2022/06/05 14:05:39;;;;;;;3.92;3.55;;;23.40;64.20;;;;;;5113740;28;20063;-47
2022/06/05 14:08:12;;;;;;;5.05;3.78;;;23.40;70.10;;;;;;5113858;28;20023;-48
2022/06/05 14:11:00;;;;;;;3.92;3.58;;;23.40;70.30;;;;;;5113495;28;20028;-49
2022/06/05 14:13:26;;;;;;;5.60;4.40;;;;;;;;;;5097011;28;20040;-48
2022/06/05 14:15:54;;;;;;;4.88;3.90;;;23.30;70.70;;;;;;5113476;28;20081;-47
2022/06/05 14:18:34;;;;;;;4.35;3.95;;;23.30;64.70;;;;;;5113455;28;20428;-48